Time;durP1;ratioP1;P1;durP2;ratioP2;P2;SDS_P1;SDS_P2;PMS_P1;PMS_P2;Temp;Humidity;BMP_temperature;BMP_pressure;BME280_temperature;BME280_humidity;BME280_pressure;Samples;Min_cycle;Max_cycle;Signal;HPM_P1;HPM_P2
2022/12/13 00:01:24;;;;;;;5.32;4.90;;;21.10;33.50;;;;;;6065988;23;20021;-68
2022/12/13 00:03:57;;;;;;;6.05;5.00;;;21.10;33.40;;;;;;6067713;23;20014;-67
2022/12/13 00:06:24;;;;;;;5.22;4.72;;;21.10;33.40;;;;;;6089879;23;20033;-68
2022/12/13 00:08:50;;;;;;;6.30;5.70;;;21.10;33.40;;;;;;6118236;23;20105;-68
2022/12/13 00:11:15;;;;;;;5.65;5.15;;;21.10;33.30;;;;;;6116231;23;20116;-68
2022/12/13 00:13:42;;;;;;;5.38;4.80;;;21.00;33.20;;;;;;6090067;23;20053;-67
2022/12/13 00:16:12;;;;;;;5.50;5.00;;;21.00;34.00;;;;;;6115476;23;20018;-67
2022/12/13 00:18:38;;;;;;;5.87;5.30;;;21.00;33.20;;;;;;6090669;23;20014;-68
2022/12/13 00:21:06;;;;;;;5.68;5.18;;;21.00;33.20;;;;;;6065664;23;20374;-67
2022/12/13 00:23:32;;;;;;;6.07;5.45;;;20.90;33.00;;;;;;6117338;23;20021;-67
2022/12/13 00:26:02;;;;;;;6.20;5.60;;;20.90;33.00;;;;;;6089157;23;20018;-67
2022/12/13 00:28:28;;;;;;;5.68;5.13;;;20.90;33.00;;;;;;6090969;23;20022;-67
2022/12/13 00:30:58;;;;;;;6.00;5.40;;;20.80;33.00;;;;;;6115483;23;20778;-68
2022/12/13 00:33:24;;;;;;;6.00;5.37;;;20.90;33.00;;;;;;6067281;23;20018;-68
2022/12/13 00:35:50;;;;;;;5.55;5.03;;;20.80;33.00;;;;;;6089844;23;20280;-67
2022/12/13 00:38:15;;;;;;;5.95;5.45;;;20.80;32.90;;;;;;6090707;23;20450;-68
2022/12/13 00:40:41;;;;;;;6.00;5.40;;;20.80;32.80;;;;;;6090419;23;20010;-67
2022/12/13 00:43:07;;;;;;;5.72;5.22;;;20.80;32.70;;;;;;6090958;23;20018;-68
2022/12/13 00:45:33;;;;;;;5.88;5.38;;;20.70;32.70;;;;;;6089761;23;20077;-66
2022/12/13 00:47:59;;;;;;;5.80;5.30;;;20.70;32.60;;;;;;6116737;23;20018;-68
2022/12/13 00:50:25;;;;;;;5.35;4.85;;;20.70;32.60;;;;;;6089932;23;20349;-68
2022/12/13 00:52:50;;;;;;;5.82;5.22;;;20.70;32.50;;;;;;6115924;23;20149;-67
2022/12/13 00:55:16;;;;;;;5.35;4.85;;;20.70;32.50;;;;;;6066554;23;20430;-68
2022/12/13 00:57:42;;;;;;;5.40;4.90;;;20.60;32.40;;;;;;6068604;23;20454;-67
2022/12/13 01:00:09;;;;;;;5.32;4.82;;;20.60;32.40;;;;;;6117806;23;20069;-67
2022/12/13 01:02:34;;;;;;;6.10;5.50;;;20.60;32.40;;;;;;6093978;23;20434;-68
2022/12/13 01:05:00;;;;;;;5.70;5.20;;;20.60;32.40;;;;;;6067958;23;20030;-66
2022/12/13 01:07:26;;;;;;;5.35;4.85;;;20.60;32.30;;;;;;6068580;23;20024;-68
2022/12/13 01:09:51;;;;;;;5.75;5.15;;;20.50;32.30;;;;;;6092722;23;20092;-67
2022/12/13 01:12:17;;;;;;;5.63;5.10;;;20.50;32.20;;;;;;6091796;23;20017;-67
2022/12/13 01:14:43;;;;;;;5.88;5.28;;;20.50;32.20;;;;;;6092517;23;20029;-67
2022/12/13 01:17:08;;;;;;;6.20;5.57;;;20.50;32.20;;;;;;6092266;23;20056;-67
2022/12/13 01:19:34;;;;;;;6.18;5.40;;;20.50;32.20;;;;;;6118804;23;20525;-67
2022/12/13 01:22:03;;;;;;;6.10;4.97;;;20.50;32.20;;;;;;6090586;23;20052;-67
2022/12/13 01:24:29;;;;;;;6.10;5.45;;;20.40;32.10;;;;;;6067244;23;20018;-68
2022/12/13 01:26:55;;;;;;;5.68;5.18;;;20.40;32.10;;;;;;6068328;23;20096;-67
2022/12/13 01:29:21;;;;;;;5.60;5.10;;;20.40;32.00;;;;;;6092516;23;20017;-68
2022/12/13 01:31:48;;;;;;;6.07;5.03;;;20.40;32.00;;;;;;6116937;23;20097;-68
2022/12/13 01:34:17;;;;;;;5.53;5.03;;;20.40;32.00;;;;;;6092197;23;20057;-68
2022/12/13 01:36:44;;;;;;;6.75;5.63;;;20.30;32.00;;;;;;6090989;23;20335;-67
2022/12/13 01:39:12;;;;;;;5.70;5.18;;;20.30;31.90;;;;;;6117140;23;20081;-67
2022/12/13 01:41:38;;;;;;;5.63;5.13;;;20.30;31.90;;;;;;6091859;23;20006;-67
2022/12/13 01:44:05;;;;;;;6.10;5.50;;;20.30;31.90;;;;;;6092057;23;20501;-68
2022/12/13 01:46:34;;;;;;;5.35;4.85;;;20.30;31.90;;;;;;6117768;23;20022;-67
2022/12/13 01:49:11;;;;;;;6.07;5.43;;;20.30;31.80;;;;;;6118124;23;20687;-67
2022/12/13 01:51:53;;;;;;;6.32;5.72;;;20.30;31.80;;;;;;6118381;23;20039;-68
2022/12/13 01:54:23;;;;;;;6.35;5.75;;;20.20;31.60;;;;;;6091496;23;20025;-67
2022/12/13 01:56:54;;;;;;;6.18;5.57;;;20.20;31.70;;;;;;6091611;23;20025;-67
2022/12/13 01:59:21;;;;;;;5.53;5.03;;;20.20;31.70;;;;;;6092058;23;20143;-67
2022/12/13 02:01:49;;;;;;;5.32;4.85;;;20.20;31.80;;;;;;6067222;23;20014;-67
2022/12/13 02:04:19;;;;;;;5.90;5.30;;;20.10;31.70;;;;;;6118174;23;20255;-68
2022/12/13 02:06:46;;;;;;;6.10;5.20;;;20.10;31.70;;;;;;6092482;23;20021;-67
2022/12/13 02:09:13;;;;;;;6.18;5.57;;;20.10;31.70;;;;;;6091972;23;20053;-67
2022/12/13 02:11:42;;;;;;;5.60;5.07;;;20.10;31.60;;;;;;6091447;23;20061;-67
2022/12/13 02:14:08;;;;;;;5.93;5.35;;;20.10;31.60;;;;;;6067872;23;20454;-67
2022/12/13 02:17:01;;;;;;;5.97;5.47;;;20.10;31.60;;;;;;6091834;23;20037;-67
2022/12/13 02:19:31;;;;;;;5.63;5.13;;;20.00;31.40;;;;;;6118017;23;20430;-67
2022/12/13 02:22:34;;;;;;;5.63;5.13;;;20.00;31.50;;;;;;6090876;23;20018;-67
2022/12/13 02:25:26;;;;;;;5.60;5.10;;;20.00;31.40;;;;;;6117167;23;20018;-67
2022/12/13 02:28:25;;;;;;;5.55;5.05;;;20.00;31.40;;;;;;6068843;23;20367;-67
2022/12/13 02:31:01;;;;;;;6.20;5.65;;;19.90;31.40;;;;;;6090419;23;20088;-65
2022/12/13 02:34:00;;;;;;;6.15;5.65;;;19.90;31.40;;;;;;6117399;23;20364;-66
2022/12/13 02:36:31;;;;;;;6.38;5.78;;;19.90;31.50;;;;;;6036962;23;20092;-67
2022/12/13 02:39:07;;;;;;;6.13;5.47;;;19.90;31.50;;;;;;6118590;23;20028;-67
2022/12/13 02:41:36;;;;;;;6.15;5.50;;;19.80;31.40;;;;;;6115187;23;20045;-67
2022/12/13 02:44:24;;;;;;;5.40;4.90;;;19.90;31.40;;;;;;6066479;23;20021;-67
2022/12/13 02:47:30;;;;;;;6.32;5.72;;;19.90;31.30;;;;;;6089102;23;20339;-67
2022/12/13 02:50:00;;;;;;;6.50;5.90;;;19.80;31.30;;;;;;6035024;23;20188;-67
2022/12/13 02:52:29;;;;;;;6.33;5.73;;;19.80;31.40;;;;;;6117106;23;20053;-67
2022/12/13 02:54:56;;;;;;;5.70;5.13;;;19.70;31.30;;;;;;6091144;23;20402;-67
2022/12/13 02:57:32;;;;;;;6.13;5.53;;;19.70;31.30;;;;;;6091220;23;20018;-67
2022/12/13 03:00:06;;;;;;;5.75;5.25;;;19.70;31.30;;;;;;6092186;23;20014;-67
2022/12/13 03:02:43;;;;;;;6.45;5.85;;;19.70;31.30;;;;;;6117073;23;20117;-67
2022/12/13 03:08:34;;;;;;;6.10;5.50;;;19.70;31.30;;;;;;6117232;23;20041;-67
2022/12/13 03:11:08;;;;;;;6.13;5.55;;;19.60;31.20;;;;;;6090948;23;20113;-68
2022/12/13 03:13:49;;;;;;;6.28;5.68;;;19.60;32.00;;;;;;6091643;23;20445;-68
2022/12/13 03:16:27;;;;;;;6.00;5.43;;;19.60;31.10;;;;;;6091046;23;20049;-67
2022/12/13 03:18:57;;;;;;;6.88;6.18;;;19.60;31.30;;;;;;6117962;23;20108;-67
2022/12/13 03:21:22;;;;;;;5.55;5.05;;;19.50;31.20;;;;;;6091152;23;20032;-67
2022/12/13 03:23:48;;;;;;;6.35;5.60;;;19.50;31.20;;;;;;6116131;23;20582;-67
2022/12/13 03:26:19;;;;;;;6.00;5.47;;;19.50;31.20;;;;;;6090541;23;20362;-67
2022/12/13 03:28:45;;;;;;;6.03;5.60;;;19.50;31.20;;;;;;6091566;23;20889;-67
2022/12/13 03:31:11;;;;;;;6.20;5.60;;;19.50;31.20;;;;;;6090909;23;20374;-67
2022/12/13 03:33:37;;;;;;;6.65;6.03;;;19.50;31.20;;;;;;6117812;23;20097;-67
2022/12/13 03:36:04;;;;;;;5.75;5.25;;;19.40;31.20;;;;;;6089827;23;20071;-67
2022/12/13 03:38:31;;;;;;;5.68;5.07;;;19.40;31.10;;;;;;6117617;23;20017;-67
2022/12/13 03:41:01;;;;;;;6.25;5.57;;;19.40;31.10;;;;;;6090894;23;20490;-67
2022/12/13 03:43:27;;;;;;;6.32;5.70;;;19.40;31.10;;;;;;6091051;23;20014;-67
2022/12/13 03:45:53;;;;;;;6.40;5.80;;;19.40;31.10;;;;;;6091115;23;20476;-66
2022/12/13 03:48:20;;;;;;;6.75;5.65;;;19.40;31.10;;;;;;6092032;23;20044;-66
2022/12/13 03:50:46;;;;;;;6.95;5.53;;;19.40;31.10;;;;;;6067713;23;20088;-66
2022/12/13 03:53:12;;;;;;;6.35;5.43;;;19.30;31.00;;;;;;6090788;23;20552;-66
2022/12/13 03:55:37;;;;;;;6.30;5.70;;;19.30;31.00;;;;;;6115979;23;20097;-67
2022/12/13 03:58:03;;;;;;;6.40;5.80;;;19.30;31.00;;;;;;6089977;23;20016;-66
2022/12/13 04:00:29;;;;;;;5.88;5.25;;;19.30;31.00;;;;;;6091225;23;20017;-67
2022/12/13 04:02:55;;;;;;;5.95;5.38;;;19.30;31.00;;;;;;6117903;23;20785;-67
2022/12/13 04:05:21;;;;;;;6.70;6.07;;;19.30;31.00;;;;;;6067106;23;20296;-66
2022/12/13 04:07:47;;;;;;;5.95;5.35;;;19.20;31.00;;;;;;6068185;23;20014;-67
2022/12/13 04:10:12;;;;;;;5.88;5.32;;;19.30;31.00;;;;;;6118263;23;20017;-67
2022/12/13 04:15:22;;;;;;;5.90;5.30;;;19.20;31.00;;;;;;6118163;23;20022;-69
2022/12/13 04:17:48;;;;;;;7.20;5.78;;;19.20;31.00;;;;;;6118959;23;21044;-66
2022/12/13 04:20:14;;;;;;;6.18;5.35;;;19.20;31.00;;;;;;6092301;23;20513;-66
2022/12/13 04:22:39;;;;;;;6.43;5.70;;;19.10;31.00;;;;;;6118509;23;20358;-67
2022/12/13 04:25:05;;;;;;;7.47;6.63;;;19.10;31.00;;;;;;6117043;23;20508;-66
2022/12/13 04:27:30;;;;;;;6.75;6.00;;;19.10;30.90;;;;;;6090470;23;20018;-67
2022/12/13 04:29:56;;;;;;;6.65;5.63;;;19.10;30.90;;;;;;6089910;23;20018;-66
2022/12/13 04:32:22;;;;;;;6.30;5.72;;;19.10;30.90;;;;;;6117266;23;20422;-67
2022/12/13 04:34:48;;;;;;;6.63;6.03;;;19.10;30.90;;;;;;6117442;23;20017;-67
2022/12/13 04:37:14;;;;;;;6.53;5.80;;;19.10;30.90;;;;;;6117473;23;20069;-66
2022/12/13 04:39:39;;;;;;;6.30;5.70;;;19.10;30.90;;;;;;6090833;23;20053;-67
2022/12/13 04:42:05;;;;;;;5.63;5.13;;;19.10;30.90;;;;;;6117655;23;20014;-68
2022/12/13 04:44:30;;;;;;;6.47;5.75;;;19.00;30.80;;;;;;6091451;23;20065;-66
2022/12/13 04:46:57;;;;;;;7.13;6.43;;;19.00;30.80;;;;;;6116150;23;20346;-66
2022/12/13 04:49:23;;;;;;;6.78;6.03;;;19.00;30.80;;;;;;6118321;23;20021;-67
2022/12/13 04:51:48;;;;;;;7.43;6.38;;;19.00;30.80;;;;;;6090473;23;20033;-66
2022/12/13 04:54:14;;;;;;;6.63;6.03;;;19.00;30.80;;;;;;6043254;23;20100;-66
2022/12/13 04:56:40;;;;;;;6.55;5.95;;;19.00;30.80;;;;;;6065754;23;20489;-67
2022/12/13 04:59:06;;;;;;;6.45;5.88;;;19.00;30.70;;;;;;6066990;23;20514;-67
2022/12/13 05:01:31;;;;;;;6.40;5.80;;;18.90;30.70;;;;;;6091194;23;20350;-66
2022/12/13 05:03:57;;;;;;;6.18;5.60;;;18.90;30.70;;;;;;6116953;23;20016;-66
2022/12/13 05:06:22;;;;;;;6.88;6.18;;;18.90;30.70;;;;;;6090589;23;20022;-67
2022/12/13 05:08:48;;;;;;;7.93;6.85;;;18.90;30.70;;;;;;6090858;23;20050;-66
2022/12/13 05:11:14;;;;;;;7.63;6.18;;;18.90;30.70;;;;;;6090761;23;20100;-67
2022/12/13 05:13:40;;;;;;;6.93;6.22;;;18.90;30.70;;;;;;6090685;23;20088;-66
2022/12/13 05:16:07;;;;;;;6.60;5.93;;;18.90;30.70;;;;;;6066385;23;20113;-67
2022/12/13 05:18:34;;;;;;;6.70;6.10;;;18.90;30.70;;;;;;6117643;23;20077;-68
2022/12/13 05:21:06;;;;;;;6.32;5.78;;;18.90;30.70;;;;;;6065984;23;20033;-67
2022/12/13 05:23:32;;;;;;;6.97;6.32;;;18.90;30.70;;;;;;6090541;23;20434;-66
2022/12/13 05:25:58;;;;;;;7.10;6.40;;;18.80;30.60;;;;;;6090521;23;20335;-68
2022/12/13 05:28:27;;;;;;;7.30;6.57;;;18.80;30.60;;;;;;6091233;23;20029;-66
2022/12/13 05:30:54;;;;;;;7.85;7.05;;;18.80;30.60;;;;;;6089914;23;20061;-67
2022/12/13 05:33:20;;;;;;;7.25;6.22;;;18.80;31.40;;;;;;6066911;23;20026;-67
2022/12/13 05:35:46;;;;;;;7.70;6.57;;;18.80;30.60;;;;;;6116173;23;20028;-67
2022/12/13 05:38:15;;;;;;;7.00;6.30;;;18.80;30.60;;;;;;6117141;23;20974;-68
2022/12/13 05:40:40;;;;;;;6.80;6.20;;;18.70;30.60;;;;;;6116829;23;20013;-67
2022/12/13 05:43:06;;;;;;;7.32;6.38;;;18.80;30.60;;;;;;6092271;23;20394;-67
2022/12/13 05:45:32;;;;;;;7.20;6.50;;;18.70;30.60;;;;;;6091713;23;20017;-66
2022/12/13 05:47:58;;;;;;;7.63;6.40;;;18.70;30.50;;;;;;6117114;23;20017;-66
2022/12/13 05:50:24;;;;;;;6.32;5.72;;;18.70;30.50;;;;;;6091832;23;20462;-65
2022/12/13 05:52:50;;;;;;;8.40;6.55;;;18.70;30.50;;;;;;6118147;23;20009;-66
2022/12/13 05:55:15;;;;;;;7.82;6.82;;;18.70;30.60;;;;;;6118521;23;20010;-66
2022/12/13 05:57:44;;;;;;;7.28;6.57;;;18.70;30.60;;;;;;6092409;23;20014;-67
2022/12/13 06:00:10;;;;;;;7.47;6.70;;;18.70;30.50;;;;;;6116860;23;20018;-66
2022/12/13 06:02:37;;;;;;;7.15;6.45;;;18.60;30.50;;;;;;6091940;23;20112;-66
2022/12/13 06:05:04;;;;;;;7.30;6.60;;;18.60;30.50;;;;;;6117536;23;20017;-66
2022/12/13 06:07:30;;;;;;;7.80;6.97;;;18.60;30.50;;;;;;6091719;23;20064;-66
2022/12/13 06:09:56;;;;;;;7.18;6.40;;;18.60;30.50;;;;;;6067446;23;20018;-66
2022/12/13 06:12:22;;;;;;;7.28;6.57;;;18.60;30.50;;;;;;6115668;23;20431;-66
2022/12/13 06:14:47;;;;;;;7.35;6.53;;;18.60;30.50;;;;;;6091379;23;20081;-68
2022/12/13 06:17:13;;;;;;;6.95;6.25;;;18.60;30.50;;;;;;6090992;23;20503;-66
2022/12/13 06:19:39;;;;;;;8.02;6.78;;;18.60;30.50;;;;;;6117552;23;20009;-66
2022/12/13 06:22:04;;;;;;;7.05;6.35;;;18.60;30.50;;;;;;6090793;23;20081;-66
2022/12/13 06:24:30;;;;;;;9.32;6.82;;;18.50;30.50;;;;;;6092007;23;20022;-68
2022/12/13 06:26:57;;;;;;;8.27;7.35;;;18.50;30.50;;;;;;6067529;23;20053;-67
2022/12/13 06:29:23;;;;;;;7.68;6.47;;;18.50;30.40;;;;;;6068135;23;20702;-66
2022/12/13 06:31:58;;;;;;;7.53;6.80;;;18.50;30.40;;;;;;6067509;23;20022;-66
2022/12/13 06:34:23;;;;;;;7.63;6.80;;;18.50;30.40;;;;;;6092691;23;20032;-65
2022/12/13 06:36:49;;;;;;;8.38;6.80;;;18.50;30.50;;;;;;6090587;23;20029;-65
2022/12/13 06:39:15;;;;;;;7.28;6.30;;;18.50;30.40;;;;;;6091807;23;20455;-66
2022/12/13 06:41:41;;;;;;;7.53;6.80;;;18.50;30.40;;;;;;6117170;23;20010;-66
2022/12/13 06:44:06;;;;;;;7.57;6.78;;;18.50;30.50;;;;;;6090974;23;20026;-66
2022/12/13 06:46:32;;;;;;;7.95;7.15;;;18.40;30.30;;;;;;6117133;23;20017;-68
2022/12/13 06:48:58;;;;;;;8.18;7.20;;;18.40;30.40;;;;;;6091868;23;20044;-66
2022/12/13 06:51:24;;;;;;;7.63;6.80;;;18.40;30.40;;;;;;6091735;23;20068;-66
2022/12/13 06:53:50;;;;;;;7.15;6.55;;;18.40;30.40;;;;;;6069056;23;20025;-67
2022/12/13 06:56:16;;;;;;;7.70;7.00;;;18.40;30.40;;;;;;6118938;23;20105;-66
2022/12/13 06:58:42;;;;;;;8.00;7.20;;;18.40;30.30;;;;;;6069600;23;20014;-66
2022/12/13 07:01:17;;;;;;;7.35;6.50;;;18.40;30.30;;;;;;6092181;23;20014;-66
2022/12/13 07:03:43;;;;;;;7.97;7.18;;;18.40;30.30;;;;;;6092027;23;20060;-66
2022/12/13 07:06:22;;;;;;;8.25;6.97;;;18.40;30.30;;;;;;6093141;23;20057;-66
2022/12/13 07:08:51;;;;;;;8.05;7.07;;;18.30;30.20;;;;;;6069392;23;20026;-65
2022/12/13 07:11:19;;;;;;;8.73;7.10;;;18.30;30.20;;;;;;6092542;23;20018;-66
2022/12/13 07:13:45;;;;;;;7.95;6.78;;;18.30;30.30;;;;;;6093131;23;20018;-67
2022/12/13 07:16:11;;;;;;;8.63;7.72;;;18.40;30.30;;;;;;6118786;23;20037;-66
2022/12/13 07:18:37;;;;;;;7.90;7.10;;;18.30;30.20;;;;;;6119575;23;20450;-67
2022/12/13 07:21:05;;;;;;;7.90;7.10;;;18.30;30.20;;;;;;6068592;23;20397;-66
2022/12/13 07:23:33;;;;;;;7.90;7.13;;;18.30;30.20;;;;;;6069129;23;20414;-67
2022/12/13 07:25:59;;;;;;;8.40;7.60;;;18.30;30.20;;;;;;6117881;23;20350;-66
2022/12/13 07:28:25;;;;;;;8.45;7.25;;;18.30;30.20;;;;;;6092166;23;20022;-66
2022/12/13 07:30:51;;;;;;;9.77;8.30;;;18.30;30.20;;;;;;6092216;23;20022;-67
2022/12/13 07:33:17;;;;;;;8.40;7.35;;;18.30;30.20;;;;;;6091886;23;20497;-67
2022/12/13 07:35:43;;;;;;;7.95;7.15;;;18.20;30.20;;;;;;6066722;23;20018;-65
2022/12/13 07:38:10;;;;;;;8.70;7.18;;;18.30;30.20;;;;;;6090969;23;20021;-66
2022/12/13 07:40:38;;;;;;;7.68;6.93;;;18.30;30.20;;;;;;6066614;23;20025;-65
2022/12/13 07:43:05;;;;;;;10.88;7.55;;;18.30;30.60;;;;;;6062781;23;20025;-65
2022/12/13 07:45:31;;;;;;;10.88;7.30;;;18.40;31.10;;;;;;6066142;23;20021;-64
2022/12/13 07:47:58;;;;;;;9.43;7.78;;;18.60;31.20;;;;;;6091628;23;20394;-65
2022/12/13 07:50:23;;;;;;;8.75;7.03;;;18.80;31.10;;;;;;6091235;23;20045;-64
2022/12/13 07:52:50;;;;;;;9.80;7.28;;;19.20;31.10;;;;;;6117815;23;20018;-66
2022/12/13 07:55:16;;;;;;;9.23;7.63;;;19.50;30.90;;;;;;6116227;23;20029;-66
2022/12/13 07:57:43;;;;;;;17.23;7.97;;;19.80;30.50;;;;;;6114761;23;20010;-66
2022/12/13 08:00:09;;;;;;;12.20;7.97;;;20.10;30.30;;;;;;6064612;23;20061;-66
2022/12/13 08:02:35;;;;;;;9.77;7.05;;;20.30;30.20;;;;;;6089304;23;20014;-67
2022/12/13 08:05:01;;;;;;;12.65;8.02;;;20.30;30.30;;;;;;6088725;23;20018;-67
2022/12/13 08:07:27;;;;;;;15.20;7.95;;;20.20;30.40;;;;;;6115608;23;20507;-66
2022/12/13 08:09:54;;;;;;;9.48;7.70;;;20.10;30.60;;;;;;6066003;23;20029;-67
2022/12/13 08:12:20;;;;;;;7.50;6.80;;;20.10;30.70;;;;;;6088958;23;20022;-66
2022/12/13 08:14:46;;;;;;;10.30;7.30;;;20.10;30.80;;;;;;6089198;23;20041;-66
2022/12/13 08:17:12;;;;;;;12.25;7.95;;;20.00;31.00;;;;;;6066217;23;20027;-66
2022/12/13 08:19:37;;;;;;;12.38;7.82;;;19.90;31.10;;;;;;6066227;23;20022;-67
2022/12/13 08:22:03;;;;;;;10.05;8.30;;;19.70;31.20;;;;;;6116412;23;20016;-66
2022/12/13 08:24:29;;;;;;;12.15;9.60;;;19.60;31.30;;;;;;6088990;23;20037;-66
2022/12/13 08:27:01;;;;;;;10.20;8.43;;;19.40;31.40;;;;;;6113625;23;20590;-66
2022/12/13 08:29:28;;;;;;;11.25;7.97;;;19.30;31.70;;;;;;6064468;23;20097;-65
2022/12/13 08:31:54;;;;;;;16.75;8.57;;;19.10;32.00;;;;;;6063981;23;20033;-69
2022/12/13 08:34:20;;;;;;;9.20;8.30;;;19.00;32.10;;;;;;6089302;23;20105;-67
2022/12/13 08:36:46;;;;;;;11.23;8.90;;;18.90;32.80;;;;;;6088783;23;20018;-67
2022/12/13 08:39:12;;;;;;;14.98;8.73;;;19.00;32.80;;;;;;6116216;23;20021;-66
2022/12/13 08:41:37;;;;;;;10.00;9.00;;;19.10;32.50;;;;;;6114781;23;20014;-66
2022/12/13 08:44:03;;;;;;;8.95;8.05;;;19.40;32.20;;;;;;6065256;23;20088;-66
2022/12/13 08:46:29;;;;;;;8.60;7.78;;;19.70;32.00;;;;;;6079392;23;20026;-66
2022/12/13 08:48:55;;;;;;;9.88;8.07;;;19.90;31.60;;;;;;6087326;23;20021;-66
2022/12/13 08:51:24;;;;;;;10.73;8.48;;;20.10;31.30;;;;;;6113739;23;20018;-66
2022/12/13 08:53:50;;;;;;;9.82;8.00;;;20.20;31.10;;;;;;6064245;23;20068;-64
2022/12/13 08:56:17;;;;;;;10.45;8.30;;;20.30;31.10;;;;;;6090573;23;20025;-63
2022/12/13 08:58:43;;;;;;;10.98;9.02;;;20.40;31.00;;;;;;6091092;23;20081;-63
2022/12/13 09:01:09;;;;;;;9.45;8.05;;;20.40;31.00;;;;;;6115811;23;20367;-64
2022/12/13 09:03:37;;;;;;;10.60;8.85;;;20.40;30.80;;;;;;6116048;23;20624;-64
2022/12/13 09:06:15;;;;;;;9.45;8.48;;;20.50;30.90;;;;;;6116386;23;20042;-65
2022/12/13 09:08:42;;;;;;;8.75;7.85;;;20.50;30.90;;;;;;6115218;23;20029;-65
2022/12/13 09:11:09;;;;;;;9.75;8.65;;;20.30;31.10;;;;;;6089863;23;20028;-65
2022/12/13 09:13:39;;;;;;;10.27;9.10;;;20.10;31.50;;;;;;6089615;23;20017;-65
2022/12/13 09:16:08;;;;;;;11.27;9.18;;;19.90;31.80;;;;;;6090565;23;20018;-65
2022/12/13 09:18:34;;;;;;;12.40;9.32;;;19.70;32.00;;;;;;6091313;23;20022;-65
2022/12/13 09:21:04;;;;;;;9.60;8.57;;;19.60;32.40;;;;;;6116773;23;20061;-65
2022/12/13 09:23:30;;;;;;;9.98;8.80;;;19.60;32.70;;;;;;6065516;23;20101;-65
2022/12/13 09:25:59;;;;;;;8.63;7.68;;;20.00;32.70;;;;;;6089870;23;20382;-65
2022/12/13 09:28:25;;;;;;;9.05;7.88;;;20.50;32.10;;;;;;6067008;23;20403;-65
2022/12/13 09:30:51;;;;;;;9.50;8.45;;;21.00;31.60;;;;;;6089417;23;20022;-64
2022/12/13 09:33:17;;;;;;;9.82;8.57;;;21.30;31.10;;;;;;6116163;23;20028;-66
2022/12/13 09:35:43;;;;;;;8.75;7.85;;;21.60;30.80;;;;;;6090462;23;20336;-66
2022/12/13 09:38:09;;;;;;;9.60;8.02;;;21.80;30.70;;;;;;6112126;23;20017;-64
2022/12/13 09:40:37;;;;;;;10.35;8.38;;;21.90;30.40;;;;;;6090535;23;20875;-66
2022/12/13 09:43:04;;;;;;;8.18;7.43;;;22.10;30.10;;;;;;6089720;23;20072;-66
2022/12/13 09:45:32;;;;;;;8.52;7.28;;;22.10;30.10;;;;;;6089234;23;20422;-66
2022/12/13 09:47:58;;;;;;;8.90;8.00;;;22.20;30.10;;;;;;6090738;23;20573;-66
2022/12/13 09:50:32;;;;;;;8.60;7.55;;;22.40;30.10;;;;;;6115689;23;20013;-66
2022/12/13 09:53:05;;;;;;;10.50;7.65;;;22.50;30.00;;;;;;6090055;23;20025;-66
2022/12/13 09:55:38;;;;;;;8.18;7.38;;;22.60;29.90;;;;;;6115683;23;20026;-66
2022/12/13 09:58:27;;;;;;;7.55;6.78;;;22.70;29.80;;;;;;6065825;23;20300;-63
2022/12/13 10:00:54;;;;;;;8.60;7.60;;;22.70;29.70;;;;;;6116085;23;20010;-62
2022/12/13 10:03:23;;;;;;;8.32;7.53;;;22.70;29.80;;;;;;6116311;23;20320;-62
2022/12/13 10:06:18;;;;;;;7.72;7.03;;;22.70;29.70;;;;;;6064186;23;20072;-66
2022/12/13 10:08:47;;;;;;;8.00;7.13;;;22.80;29.50;;;;;;6089868;23;20421;-61
2022/12/13 10:11:15;;;;;;;8.35;7.32;;;22.70;29.70;;;;;;6115069;23;20360;-62
2022/12/13 10:13:54;;;;;;;8.50;7.70;;;22.30;30.00;;;;;;6086465;23;20365;-63
2022/12/13 10:16:35;;;;;;;10.80;8.25;;;21.90;30.30;;;;;;6088659;23;20077;-62
2022/12/13 10:19:41;;;;;;;10.60;8.60;;;21.40;30.70;;;;;;6090656;23;20485;-63
2022/12/13 10:22:13;;;;;;;8.40;7.15;;;21.10;31.30;;;;;;6084190;23;20097;-63
2022/12/13 10:24:53;;;;;;;8.20;7.40;;;21.20;31.60;;;;;;6114963;23;20017;-62
2022/12/13 10:27:32;;;;;;;8.25;7.40;;;21.50;31.20;;;;;;6114820;23;20105;-63
2022/12/13 10:30:07;;;;;;;8.63;7.55;;;21.80;30.60;;;;;;6087689;23;20018;-63
2022/12/13 10:32:44;;;;;;;8.07;7.25;;;22.10;30.40;;;;;;6088820;23;20033;-62
2022/12/13 10:35:37;;;;;;;7.95;7.10;;;22.30;30.40;;;;;;6086893;23;20061;-63
2022/12/13 10:38:33;;;;;;;7.50;6.80;;;22.50;30.30;;;;;;6115981;23;20025;-62
2022/12/13 10:40:59;;;;;;;8.90;6.97;;;22.70;30.20;;;;;;6089811;23;20014;-65
2022/12/13 10:43:26;;;;;;;9.60;7.10;;;22.80;30.10;;;;;;6089966;23;20065;-64
2022/12/13 10:45:58;;;;;;;11.00;7.32;;;22.90;30.00;;;;;;6115975;23;20025;-64
2022/12/13 10:48:26;;;;;;;8.38;7.45;;;23.00;30.00;;;;;;6115226;23;20018;-64
2022/12/13 10:51:02;;;;;;;8.82;7.03;;;23.00;29.80;;;;;;6116301;23;20093;-62
2022/12/13 10:53:59;;;;;;;7.85;7.05;;;23.10;29.60;;;;;;6089048;23;20456;-66
2022/12/13 10:56:46;;;;;;;8.15;7.30;;;23.20;29.50;;;;;;6114984;23;20018;-65
2022/12/13 10:59:32;;;;;;;7.95;7.13;;;23.20;29.30;;;;;;6090035;23;20018;-65
2022/12/13 11:02:00;;;;;;;8.25;7.45;;;23.20;29.30;;;;;;6090149;23;20343;-64
2022/12/13 11:04:30;;;;;;;9.05;7.55;;;23.20;29.40;;;;;;6089873;23;20041;-64
2022/12/13 11:07:20;;;;;;;12.60;7.13;;;23.10;29.40;;;;;;6088869;23;20057;-63
2022/12/13 11:09:46;;;;;;;7.90;7.05;;;23.10;29.50;;;;;;6115512;23;20014;-65
2022/12/13 11:12:22;;;;;;;7.43;6.63;;;23.10;29.60;;;;;;6116413;23;20450;-65
2022/12/13 11:14:52;;;;;;;8.55;6.80;;;23.10;29.60;;;;;;6090699;23;20018;-63
2022/12/13 11:17:22;;;;;;;8.48;6.68;;;23.10;29.60;;;;;;6090046;23;20014;-63
2022/12/13 11:19:50;;;;;;;;;;;22.80;29.80;;;;;;6117027;23;20032;-63
2022/12/13 11:22:42;;;;;;;7.80;7.00;;;22.40;29.80;;;;;;6086816;23;19952;-65
2022/12/13 11:25:25;;;;;;;7.93;7.15;;;21.90;30.40;;;;;;6107469;23;20374;-64
2022/12/13 11:28:21;;;;;;;7.82;7.03;;;21.50;32.00;;;;;;6089447;23;20029;-64
2022/12/13 11:30:52;;;;;;;8.95;6.93;;;21.40;32.80;;;;;;6090033;23;20061;-66
2022/12/13 11:33:37;;;;;;;9.48;7.03;;;21.70;33.50;;;;;;6066329;23;20735;-66
2022/12/13 11:36:12;;;;;;;8.10;7.30;;;22.00;34.20;;;;;;6115783;23;20049;-62
2022/12/13 11:38:50;;;;;;;8.43;7.00;;;22.30;33.90;;;;;;6116195;23;20018;-65
2022/12/13 11:41:41;;;;;;;10.75;7.28;;;22.40;35.40;;;;;;6090194;23;20013;-64
2022/12/13 11:44:13;;;;;;;8.57;7.03;;;22.60;36.70;;;;;;6115697;23;20334;-62
2022/12/13 11:46:50;;;;;;;11.52;6.72;;;22.80;35.80;;;;;;6089699;23;20025;-64
2022/12/13 11:49:38;;;;;;;9.27;6.70;;;22.90;36.50;;;;;;6114945;23;20096;-64
2022/12/13 11:52:31;;;;;;;13.40;7.95;;;22.90;37.60;;;;;;6114177;23;20052;-64
2022/12/13 11:55:05;;;;;;;11.85;10.65;;;23.00;37.10;;;;;;6064683;23;20505;-64
2022/12/13 11:58:01;;;;;;;11.95;10.32;;;23.10;37.90;;;;;;6089810;23;20085;-64
2022/12/13 12:00:37;;;;;;;13.88;10.98;;;23.20;39.60;;;;;;6086994;23;20201;-64
2022/12/13 12:03:34;;;;;;;14.40;9.98;;;23.30;38.50;;;;;;6067026;23;20053;-64
2022/12/13 12:06:06;;;;;;;11.25;9.27;;;23.40;39.00;;;;;;6115844;23;20061;-63
2022/12/13 12:08:55;;;;;;;12.57;9.48;;;23.50;38.40;;;;;;6066583;23;20046;-64
2022/12/13 12:11:41;;;;;;;11.07;9.27;;;23.50;38.70;;;;;;6092049;23;20354;-64
2022/12/13 12:14:21;;;;;;;12.18;8.63;;;23.60;39.10;;;;;;6115437;23;20105;-64
2022/12/13 12:16:52;;;;;;;12.10;8.60;;;23.70;38.70;;;;;;6084243;23;20101;-64
2022/12/13 12:19:40;;;;;;;10.48;8.30;;;23.70;38.50;;;;;;6113533;23;20013;-65
2022/12/13 12:22:27;;;;;;;14.30;7.97;;;23.80;39.00;;;;;;6066144;23;20345;-63
2022/12/13 12:25:09;;;;;;;9.98;7.75;;;23.70;38.70;;;;;;6115835;23;20771;-64
2022/12/13 12:28:00;;;;;;;8.55;7.22;;;23.60;38.90;;;;;;6089128;23;20018;-64
2022/12/13 12:30:57;;;;;;;9.18;7.13;;;23.60;39.10;;;;;;6088069;23;20018;-64
2022/12/13 12:33:44;;;;;;;7.55;6.78;;;23.60;39.00;;;;;;6088582;23;20029;-63
2022/12/13 12:36:32;;;;;;;10.32;6.57;;;23.50;38.90;;;;;;6114900;23;20022;-66
2022/12/13 12:39:20;;;;;;;10.27;7.20;;;23.50;38.80;;;;;;6114216;23;20014;-64
2022/12/13 12:41:51;;;;;;;8.45;6.70;;;23.40;38.70;;;;;;6115306;23;20767;-65
2022/12/13 12:44:49;;;;;;;10.45;7.05;;;23.40;38.70;;;;;;6088602;23;20104;-65
2022/12/13 12:47:37;;;;;;;9.15;6.75;;;23.40;38.40;;;;;;6087830;23;20018;-66
2022/12/13 12:50:18;;;;;;;7.82;7.00;;;23.40;38.10;;;;;;6114735;23;20045;-65
2022/12/13 12:52:55;;;;;;;8.35;7.15;;;23.40;37.90;;;;;;6089657;23;20022;-65
2022/12/13 12:55:26;;;;;;;8.93;6.80;;;23.40;37.80;;;;;;6089249;23;20379;-66
2022/12/13 12:58:16;;;;;;;7.75;6.03;;;23.40;37.60;;;;;;6089868;23;20013;-65
2022/12/13 13:00:58;;;;;;;7.78;6.70;;;23.40;37.30;;;;;;6088953;23;20022;-65
2022/12/13 13:03:26;;;;;;;9.05;6.53;;;23.40;37.10;;;;;;6090324;23;20025;-65
2022/12/13 13:06:08;;;;;;;7.53;6.70;;;23.40;37.00;;;;;;6116041;23;20018;-65
2022/12/13 13:08:57;;;;;;;7.65;6.85;;;23.40;36.70;;;;;;6090483;23;20018;-64
2022/12/13 13:11:26;;;;;;;6.90;6.20;;;23.40;36.50;;;;;;6089627;23;20097;-65